sensor_id;sensor_type;location;lat;lon;timestamp;pressure;altitude;pressure_sealevel;temperature;humidity
47716;BME280;33476;50.984;3.538;2023-11-19T00:00:34;101100.69;;;15.75;87.76
47716;BME280;33476;50.984;3.538;2023-11-19T00:02:59;101104.03;;;15.77;87.62
47716;BME280;33476;50.984;3.538;2023-11-19T00:05:25;101104.25;;;15.74;87.48
47716;BME280;33476;50.984;3.538;2023-11-19T00:07:50;101101.72;;;15.72;87.64
47716;BME280;33476;50.984;3.538;2023-11-19T00:10:16;101099.28;;;15.69;87.63
47716;BME280;33476;50.984;3.538;2023-11-19T00:12:46;101102.00;;;15.68;87.72
47716;BME280;33476;50.984;3.538;2023-11-19T00:15:13;101100.97;;;15.70;87.55
47716;BME280;33476;50.984;3.538;2023-11-19T00:17:39;101094.47;;;15.76;87.29
47716;BME280;33476;50.984;3.538;2023-11-19T00:20:12;101094.25;;;15.79;87.03
47716;BME280;33476;50.984;3.538;2023-11-19T00:22:37;101102.16;;;15.79;87.04
47716;BME280;33476;50.984;3.538;2023-11-19T00:25:03;101104.59;;;15.82;86.79
47716;BME280;33476;50.984;3.538;2023-11-19T00:27:29;101107.34;;;15.81;86.60
47716;BME280;33476;50.984;3.538;2023-11-19T00:29:54;101114.38;;;15.80;86.59
47716;BME280;33476;50.984;3.538;2023-11-19T00:32:20;101110.06;;;15.79;86.37
47716;BME280;33476;50.984;3.538;2023-11-19T00:34:45;101101.41;;;15.77;86.48
47716;BME280;33476;50.984;3.538;2023-11-19T00:37:13;101100.56;;;15.77;86.08
47716;BME280;33476;50.984;3.538;2023-11-19T00:39:39;101107.53;;;15.78;86.07
47716;BME280;33476;50.984;3.538;2023-11-19T00:42:04;101121.44;;;15.80;85.83
47716;BME280;33476;50.984;3.538;2023-11-19T00:44:30;101127.75;;;15.77;85.95
47716;BME280;33476;50.984;3.538;2023-11-19T00:46:55;101126.28;;;15.73;85.88
47716;BME280;33476;50.984;3.538;2023-11-19T00:49:21;101123.72;;;15.71;85.74
47716;BME280;33476;50.984;3.538;2023-11-19T00:51:46;101114.03;;;15.72;85.33
47716;BME280;33476;50.984;3.538;2023-11-19T00:54:11;101114.91;;;15.72;85.27
47716;BME280;33476;50.984;3.538;2023-11-19T00:56:37;101102.66;;;15.71;85.00
47716;BME280;33476;50.984;3.538;2023-11-19T00:59:02;101100.34;;;15.67;84.84
47716;BME280;33476;50.984;3.538;2023-11-19T01:01:29;101099.50;;;15.66;84.50
47716;BME280;33476;50.984;3.538;2023-11-19T01:03:55;101088.94;;;15.66;84.41
47716;BME280;33476;50.984;3.538;2023-11-19T01:06:31;101097.13;;;15.62;84.39
47716;BME280;33476;50.984;3.538;2023-11-19T01:08:57;101089.13;;;15.63;84.06
47716;BME280;33476;50.984;3.538;2023-11-19T01:11:24;101098.09;;;15.61;83.73
47716;BME280;33476;50.984;3.538;2023-11-19T01:13:51;101095.34;;;15.62;83.59
47716;BME280;33476;50.984;3.538;2023-11-19T01:16:17;101106.66;;;15.64;83.21
47716;BME280;33476;50.984;3.538;2023-11-19T01:18:43;101107.28;;;15.68;82.90
47716;BME280;33476;50.984;3.538;2023-11-19T01:21:09;101103.81;;;15.67;82.73
47716;BME280;33476;50.984;3.538;2023-11-19T01:23:35;101103.69;;;15.69;82.39
47716;BME280;33476;50.984;3.538;2023-11-19T01:26:00;101088.09;;;15.66;82.48
47716;BME280;33476;50.984;3.538;2023-11-19T01:28:25;101086.59;;;15.62;82.63
47716;BME280;33476;50.984;3.538;2023-11-19T01:30:51;101086.22;;;15.54;82.90
47716;BME280;33476;50.984;3.538;2023-11-19T01:33:16;101084.63;;;15.51;82.80
47716;BME280;33476;50.984;3.538;2023-11-19T01:35:42;101084.75;;;15.50;82.79
47716;BME280;33476;50.984;3.538;2023-11-19T01:38:07;101078.75;;;15.48;82.79
47716;BME280;33476;50.984;3.538;2023-11-19T01:40:36;101086.91;;;15.43;82.82
47716;BME280;33476;50.984;3.538;2023-11-19T01:43:02;101086.56;;;15.35;83.08
47716;BME280;33476;50.984;3.538;2023-11-19T01:45:28;101084.88;;;15.34;83.13
47716;BME280;33476;50.984;3.538;2023-11-19T01:47:56;101087.50;;;15.34;83.28
47716;BME280;33476;50.984;3.538;2023-11-19T01:50:22;101081.41;;;15.33;83.13
47716;BME280;33476;50.984;3.538;2023-11-19T01:52:52;101081.56;;;15.30;83.25
47716;BME280;33476;50.984;3.538;2023-11-19T01:55:20;101079.88;;;15.29;83.22
47716;BME280;33476;50.984;3.538;2023-11-19T01:57:45;101084.31;;;15.29;83.17
47716;BME280;33476;50.984;3.538;2023-11-19T02:00:12;101078.31;;;15.27;83.13
47716;BME280;33476;50.984;3.538;2023-11-19T02:02:39;101079.16;;;15.27;82.97
47716;BME280;33476;50.984;3.538;2023-11-19T02:05:05;101087.25;;;15.24;83.07
47716;BME280;33476;50.984;3.538;2023-11-19T02:07:31;101091.56;;;15.25;82.81
47716;BME280;33476;50.984;3.538;2023-11-19T02:09:57;101087.25;;;15.24;82.71
47716;BME280;33476;50.984;3.538;2023-11-19T02:12:25;101075.78;;;15.25;82.56
47716;BME280;33476;50.984;3.538;2023-11-19T02:14:50;101093.34;;;15.25;82.30
47716;BME280;33476;50.984;3.538;2023-11-19T02:17:29;101074.47;;;15.18;82.33
47716;BME280;33476;50.984;3.538;2023-11-19T02:19:57;101078.78;;;15.19;82.35
47716;BME280;33476;50.984;3.538;2023-11-19T02:22:22;101073.91;;;15.13;82.61
47716;BME280;33476;50.984;3.538;2023-11-19T02:24:49;101073.16;;;15.11;82.62
47716;BME280;33476;50.984;3.538;2023-11-19T02:27:25;101072.69;;;15.04;82.64
47716;BME280;33476;50.984;3.538;2023-11-19T02:29:54;101061.91;;;15.09;82.33
47716;BME280;33476;50.984;3.538;2023-11-19T02:32:19;101070.53;;;15.11;82.25
47716;BME280;33476;50.984;3.538;2023-11-19T02:34:45;101071.38;;;15.11;82.10
47716;BME280;33476;50.984;3.538;2023-11-19T02:37:11;101069.69;;;15.10;82.00
47716;BME280;33476;50.984;3.538;2023-11-19T02:39:36;101067.91;;;15.11;81.72
47716;BME280;33476;50.984;3.538;2023-11-19T02:42:02;101061.16;;;15.07;82.20
47716;BME280;33476;50.984;3.538;2023-11-19T02:44:27;101061.44;;;15.02;81.92
47716;BME280;33476;50.984;3.538;2023-11-19T02:46:55;101052.13;;;14.97;82.11
47716;BME280;33476;50.984;3.538;2023-11-19T02:49:25;101045.19;;;14.96;82.08
47716;BME280;33476;50.984;3.538;2023-11-19T02:51:50;101051.13;;;14.99;81.81
47716;BME280;33476;50.984;3.538;2023-11-19T02:54:15;101045.75;;;15.01;81.49
47716;BME280;33476;50.984;3.538;2023-11-19T02:56:44;101045.00;;;14.99;81.70
47716;BME280;33476;50.984;3.538;2023-11-19T02:59:13;101038.91;;;14.98;81.48
47716;BME280;33476;50.984;3.538;2023-11-19T03:01:52;101043.31;;;14.98;81.25
47716;BME280;33476;50.984;3.538;2023-11-19T03:04:17;101052.97;;;14.97;81.18
47716;BME280;33476;50.984;3.538;2023-11-19T03:06:45;101051.38;;;14.95;81.17
47716;BME280;33476;50.984;3.538;2023-11-19T03:09:11;101053.19;;;14.94;80.69
47716;BME280;33476;50.984;3.538;2023-11-19T03:11:36;101054.13;;;14.93;80.59
47716;BME280;33476;50.984;3.538;2023-11-19T03:14:02;101059.84;;;14.85;80.46
47716;BME280;33476;50.984;3.538;2023-11-19T03:16:30;101061.91;;;14.80;80.55
47716;BME280;33476;50.984;3.538;2023-11-19T03:18:56;101063.63;;;14.81;80.40
47716;BME280;33476;50.984;3.538;2023-11-19T03:21:28;101073.38;;;14.79;80.33
47716;BME280;33476;50.984;3.538;2023-11-19T03:23:54;101071.50;;;14.81;79.91
47716;BME280;33476;50.984;3.538;2023-11-19T03:26:19;101084.00;;;14.78;79.73
47716;BME280;33476;50.984;3.538;2023-11-19T03:28:45;101082.31;;;14.77;79.57
47716;BME280;33476;50.984;3.538;2023-11-19T03:31:10;101081.47;;;14.76;79.23
47716;BME280;33476;50.984;3.538;2023-11-19T03:33:35;101084.19;;;14.75;79.19
47716;BME280;33476;50.984;3.538;2023-11-19T03:36:02;101092.06;;;14.75;79.04
47716;BME280;33476;50.984;3.538;2023-11-19T03:38:28;101089.44;;;14.75;78.89
47716;BME280;33476;50.984;3.538;2023-11-19T03:40:53;101100.72;;;14.77;78.62
47716;BME280;33476;50.984;3.538;2023-11-19T03:43:18;101088.41;;;14.77;78.44
47716;BME280;33476;50.984;3.538;2023-11-19T03:45:46;101094.59;;;14.76;78.71
47716;BME280;33476;50.984;3.538;2023-11-19T03:48:12;101093.66;;;14.77;78.41
47716;BME280;33476;50.984;3.538;2023-11-19T03:50:37;101088.41;;;14.77;78.18
47716;BME280;33476;50.984;3.538;2023-11-19T03:53:02;101082.41;;;14.75;77.99
47716;BME280;33476;50.984;3.538;2023-11-19T03:55:29;101083.59;;;14.70;78.10
47716;BME280;33476;50.984;3.538;2023-11-19T03:57:55;101093.47;;;14.66;78.21
47716;BME280;33476;50.984;3.538;2023-11-19T04:00:20;101098.06;;;14.63;78.12
47716;BME280;33476;50.984;3.538;2023-11-19T04:02:46;101104.25;;;14.61;78.11
47716;BME280;33476;50.984;3.538;2023-11-19T04:05:12;101104.34;;;14.60;78.17
47716;BME280;33476;50.984;3.538;2023-11-19T04:07:37;101109.81;;;14.57;78.02
47716;BME280;33476;50.984;3.538;2023-11-19T04:10:03;101102.09;;;14.54;78.16
47716;BME280;33476;50.984;3.538;2023-11-19T04:12:29;101102.19;;;14.52;77.96
47716;BME280;33476;50.984;3.538;2023-11-19T04:14:54;101100.97;;;14.58;77.87
47716;BME280;33476;50.984;3.538;2023-11-19T04:17:19;101100.13;;;14.57;77.78
47716;BME280;33476;50.984;3.538;2023-11-19T04:19:45;101102.94;;;14.54;77.20
47716;BME280;33476;50.984;3.538;2023-11-19T04:22:10;101105.66;;;14.53;77.29
47716;BME280;33476;50.984;3.538;2023-11-19T04:24:36;101099.66;;;14.51;77.02
47716;BME280;33476;50.984;3.538;2023-11-19T04:27:02;101105.84;;;14.50;76.42
47716;BME280;33476;50.984;3.538;2023-11-19T04:29:29;101108.06;;;14.42;76.55
47716;BME280;33476;50.984;3.538;2023-11-19T04:31:55;101112.47;;;14.41;76.69
47716;BME280;33476;50.984;3.538;2023-11-19T04:34:21;101113.13;;;14.45;76.45
47716;BME280;33476;50.984;3.538;2023-11-19T04:36:46;101106.13;;;14.45;75.87
47716;BME280;33476;50.984;3.538;2023-11-19T04:39:11;101109.00;;;14.41;75.86
47716;BME280;33476;50.984;3.538;2023-11-19T04:41:50;101103.16;;;14.36;76.26
47716;BME280;33476;50.984;3.538;2023-11-19T04:44:19;101103.06;;;14.37;75.72
47716;BME280;33476;50.984;3.538;2023-11-19T04:46:45;101108.41;;;14.36;75.51
47716;BME280;33476;50.984;3.538;2023-11-19T04:49:11;101103.34;;;14.32;75.78
47716;BME280;33476;50.984;3.538;2023-11-19T04:51:41;101100.13;;;14.27;75.57
47716;BME280;33476;50.984;3.538;2023-11-19T04:54:07;101094.88;;;14.27;75.70
47716;BME280;33476;50.984;3.538;2023-11-19T04:56:34;101106.22;;;14.28;75.63
47716;BME280;33476;50.984;3.538;2023-11-19T04:58:59;101101.06;;;14.26;75.40
47716;BME280;33476;50.984;3.538;2023-11-19T05:01:24;101116.09;;;14.24;75.52
47716;BME280;33476;50.984;3.538;2023-11-19T05:03:50;101113.53;;;14.23;75.50
47716;BME280;33476;50.984;3.538;2023-11-19T05:06:16;101108.81;;;14.14;75.65
47716;BME280;33476;50.984;3.538;2023-11-19T05:08:42;101116.88;;;14.11;75.44
47716;BME280;33476;50.984;3.538;2023-11-19T05:11:07;101109.09;;;14.09;75.47
47716;BME280;33476;50.984;3.538;2023-11-19T05:13:32;101107.47;;;14.06;75.77
47716;BME280;33476;50.984;3.538;2023-11-19T05:15:58;101096.06;;;14.08;75.75
47716;BME280;33476;50.984;3.538;2023-11-19T05:18:23;101097.06;;;14.05;75.94
47716;BME280;33476;50.984;3.538;2023-11-19T05:20:48;101100.38;;;14.09;75.42
47716;BME280;33476;50.984;3.538;2023-11-19T05:23:14;101081.88;;;14.10;75.26
47716;BME280;33476;50.984;3.538;2023-11-19T05:25:39;101083.66;;;14.10;75.13
47716;BME280;33476;50.984;3.538;2023-11-19T05:28:04;101088.34;;;14.04;74.85
47716;BME280;33476;50.984;3.538;2023-11-19T05:30:30;101095.38;;;14.04;74.86
47716;BME280;33476;50.984;3.538;2023-11-19T05:32:55;101096.41;;;14.01;74.80
47716;BME280;33476;50.984;3.538;2023-11-19T05:35:20;101107.66;;;14.03;74.75
47716;BME280;33476;50.984;3.538;2023-11-19T05:37:46;101101.38;;;14.06;74.49
47716;BME280;33476;50.984;3.538;2023-11-19T05:40:11;101098.59;;;14.09;74.33
47716;BME280;33476;50.984;3.538;2023-11-19T05:42:40;101100.53;;;14.05;74.35
47716;BME280;33476;50.984;3.538;2023-11-19T05:45:07;101102.50;;;14.02;74.14
47716;BME280;33476;50.984;3.538;2023-11-19T05:47:33;101094.88;;;13.97;74.36
47716;BME280;33476;50.984;3.538;2023-11-19T05:49:58;101098.44;;;13.96;74.43
47716;BME280;33476;50.984;3.538;2023-11-19T05:52:24;101118.44;;;13.99;74.23
47716;BME280;33476;50.984;3.538;2023-11-19T05:54:49;101112.34;;;13.98;74.32
47716;BME280;33476;50.984;3.538;2023-11-19T05:57:17;101104.72;;;13.94;74.49
47716;BME280;33476;50.984;3.538;2023-11-19T05:59:49;101098.53;;;13.95;74.46
47716;BME280;33476;50.984;3.538;2023-11-19T06:02:15;101097.88;;;13.91;74.42
47716;BME280;33476;50.984;3.538;2023-11-19T06:04:40;101090.06;;;13.90;74.71
47716;BME280;33476;50.984;3.538;2023-11-19T06:07:06;101093.56;;;13.90;74.33
47716;BME280;33476;50.984;3.538;2023-11-19T06:09:32;101105.75;;;13.91;74.26
47716;BME280;33476;50.984;3.538;2023-11-19T06:11:59;101101.34;;;13.92;74.26
47716;BME280;33476;50.984;3.538;2023-11-19T06:14:27;101103.03;;;13.93;73.98
47716;BME280;33476;50.984;3.538;2023-11-19T06:16:52;101109.03;;;13.95;73.92
47716;BME280;33476;50.984;3.538;2023-11-19T06:19:17;101113.63;;;13.91;73.94
47716;BME280;33476;50.984;3.538;2023-11-19T06:21:43;101112.50;;;13.95;73.53
47716;BME280;33476;50.984;3.538;2023-11-19T06:24:08;101111.56;;;13.96;73.40
47716;BME280;33476;50.984;3.538;2023-11-19T06:26:34;101113.63;;;13.91;73.82
47716;BME280;33476;50.984;3.538;2023-11-19T06:28:59;101100.56;;;13.90;73.74
47716;BME280;33476;50.984;3.538;2023-11-19T06:31:25;101099.56;;;13.92;73.84
47716;BME280;33476;50.984;3.538;2023-11-19T06:33:50;101098.63;;;13.93;73.94
47716;BME280;33476;50.984;3.538;2023-11-19T06:36:16;101105.66;;;13.93;73.58
47716;BME280;33476;50.984;3.538;2023-11-19T06:38:42;101112.59;;;13.94;73.93
47716;BME280;33476;50.984;3.538;2023-11-19T06:41:08;101114.47;;;13.92;74.00
47716;BME280;33476;50.984;3.538;2023-11-19T06:43:37;101115.56;;;13.88;74.38
47716;BME280;33476;50.984;3.538;2023-11-19T06:46:02;101120.16;;;13.84;74.21
47716;BME280;33476;50.984;3.538;2023-11-19T06:48:31;101115.91;;;13.82;74.68
47716;BME280;33476;50.984;3.538;2023-11-19T06:50:57;101113.22;;;13.83;74.73
47716;BME280;33476;50.984;3.538;2023-11-19T06:53:22;101118.28;;;13.86;74.61
47716;BME280;33476;50.984;3.538;2023-11-19T06:55:48;101118.19;;;13.88;74.60
47716;BME280;33476;50.984;3.538;2023-11-19T06:58:13;101119.97;;;13.87;74.90
47716;BME280;33476;50.984;3.538;2023-11-19T07:00:38;101124.38;;;13.87;74.93
47716;BME280;33476;50.984;3.538;2023-11-19T07:03:03;101118.28;;;13.86;74.84
47716;BME280;33476;50.984;3.538;2023-11-19T07:05:31;101120.16;;;13.84;75.05
47716;BME280;33476;50.984;3.538;2023-11-19T07:07:56;101131.59;;;13.83;75.44
47716;BME280;33476;50.984;3.538;2023-11-19T07:10:21;101117.69;;;13.81;75.39
47716;BME280;33476;50.984;3.538;2023-11-19T07:12:47;101119.66;;;13.77;75.85
47716;BME280;33476;50.984;3.538;2023-11-19T07:15:15;101125.56;;;13.81;75.78
47716;BME280;33476;50.984;3.538;2023-11-19T07:17:42;101124.66;;;13.82;75.74
47716;BME280;33476;50.984;3.538;2023-11-19T07:20:10;101136.91;;;13.82;75.87
47716;BME280;33476;50.984;3.538;2023-11-19T07:22:38;101139.47;;;13.83;76.01
47716;BME280;33476;50.984;3.538;2023-11-19T07:25:04;101146.31;;;13.86;76.06
47716;BME280;33476;50.984;3.538;2023-11-19T07:27:29;101141.66;;;13.91;75.84
47716;BME280;33476;50.984;3.538;2023-11-19T07:29:55;101150.28;;;13.93;75.67
47716;BME280;33476;50.984;3.538;2023-11-19T07:32:20;101150.81;;;13.99;75.80
47716;BME280;33476;50.984;3.538;2023-11-19T07:34:45;101155.13;;;14.00;75.27
47716;BME280;33476;50.984;3.538;2023-11-19T07:37:11;101148.19;;;13.99;75.51
47716;BME280;33476;50.984;3.538;2023-11-19T07:39:36;101148.84;;;14.03;75.72
47716;BME280;33476;50.984;3.538;2023-11-19T07:42:03;101161.88;;;14.04;75.71
47716;BME280;33476;50.984;3.538;2023-11-19T07:44:28;101149.50;;;14.06;75.42
47716;BME280;33476;50.984;3.538;2023-11-19T07:46:54;101149.75;;;14.18;75.28
47716;BME280;33476;50.984;3.538;2023-11-19T07:49:19;101160.16;;;14.19;75.09
47716;BME280;33476;50.984;3.538;2023-11-19T07:51:44;101156.09;;;14.14;75.59
47716;BME280;33476;50.984;3.538;2023-11-19T07:54:10;101151.03;;;14.11;75.68
47716;BME280;33476;50.984;3.538;2023-11-19T07:56:35;101153.84;;;14.08;76.12
47716;BME280;33476;50.984;3.538;2023-11-19T07:59:01;101162.72;;;14.05;75.93
47716;BME280;33476;50.984;3.538;2023-11-19T08:01:27;101148.66;;;14.06;76.16
47716;BME280;33476;50.984;3.538;2023-11-19T08:03:52;101145.78;;;14.11;75.58
47716;BME280;33476;50.984;3.538;2023-11-19T08:06:17;101156.88;;;14.16;75.50
47716;BME280;33476;50.984;3.538;2023-11-19T08:08:43;101170.75;;;14.18;75.54
47716;BME280;33476;50.984;3.538;2023-11-19T08:11:08;101178.66;;;14.18;75.49
47716;BME280;33476;50.984;3.538;2023-11-19T08:13:33;101174.22;;;14.18;75.29
47716;BME280;33476;50.984;3.538;2023-11-19T08:15:59;101161.00;;;14.20;75.56
47716;BME280;33476;50.984;3.538;2023-11-19T08:18:24;101162.44;;;14.25;75.40
47716;BME280;33476;50.984;3.538;2023-11-19T08:20:50;101176.31;;;14.27;75.44
47716;BME280;33476;50.984;3.538;2023-11-19T08:23:19;101174.00;;;14.37;75.46
47716;BME280;33476;50.984;3.538;2023-11-19T08:25:44;101161.97;;;14.49;75.26
47716;BME280;33476;50.984;3.538;2023-11-19T08:28:10;101155.50;;;14.54;75.16
47716;BME280;33476;50.984;3.538;2023-11-19T08:30:35;101157.13;;;14.57;74.89
47716;BME280;33476;50.984;3.538;2023-11-19T08:33:00;101156.84;;;14.61;74.72
47716;BME280;33476;50.984;3.538;2023-11-19T08:35:28;101147.19;;;14.76;74.54
47716;BME280;33476;50.984;3.538;2023-11-19T08:37:54;101147.84;;;14.80;74.47
47716;BME280;33476;50.984;3.538;2023-11-19T08:40:19;101156.31;;;14.85;74.46
47716;BME280;33476;50.984;3.538;2023-11-19T08:42:45;101164.41;;;15.25;74.09
47716;BME280;33476;50.984;3.538;2023-11-19T08:45:10;101156.94;;;15.74;73.27
47716;BME280;33476;50.984;3.538;2023-11-19T08:47:37;101170.06;;;16.15;72.28
47716;BME280;33476;50.984;3.538;2023-11-19T08:50:02;101166.88;;;16.50;71.58
47716;BME280;33476;50.984;3.538;2023-11-19T08:52:29;101172.97;;;16.63;70.77
47716;BME280;33476;50.984;3.538;2023-11-19T08:54:54;101169.00;;;16.70;70.73
47716;BME280;33476;50.984;3.538;2023-11-19T08:57:20;101165.66;;;16.81;70.42
47716;BME280;33476;50.984;3.538;2023-11-19T08:59:45;101158.81;;;16.91;69.55
47716;BME280;33476;50.984;3.538;2023-11-19T09:02:11;101157.31;;;16.74;69.40
47716;BME280;33476;50.984;3.538;2023-11-19T09:04:36;101164.84;;;16.53;69.76
47716;BME280;33476;50.984;3.538;2023-11-19T09:07:02;101163.66;;;16.32;70.23
47716;BME280;33476;50.984;3.538;2023-11-19T09:09:28;101166.25;;;16.19;70.32
47716;BME280;33476;50.984;3.538;2023-11-19T09:11:54;101159.28;;;16.06;70.70
47716;BME280;33476;50.984;3.538;2023-11-19T09:14:19;101157.75;;;15.89;71.05
47716;BME280;33476;50.984;3.538;2023-11-19T09:16:49;101152.97;;;15.81;71.67
47716;BME280;33476;50.984;3.538;2023-11-19T09:19:15;101147.75;;;15.80;71.61
47716;BME280;33476;50.984;3.538;2023-11-19T09:21:40;101155.31;;;15.71;71.67
47716;BME280;33476;50.984;3.538;2023-11-19T09:24:05;101149.56;;;15.79;72.17
47716;BME280;33476;50.984;3.538;2023-11-19T09:26:32;101152.25;;;15.92;71.75
47716;BME280;33476;50.984;3.538;2023-11-19T09:28:58;101148.97;;;16.15;71.38
47716;BME280;33476;50.984;3.538;2023-11-19T09:31:23;101148.31;;;16.12;71.12
47716;BME280;33476;50.984;3.538;2023-11-19T09:33:49;101144.44;;;16.30;70.59
47716;BME280;33476;50.984;3.538;2023-11-19T09:36:14;101134.28;;;16.51;70.09
47716;BME280;33476;50.984;3.538;2023-11-19T09:38:42;101147.47;;;16.64;69.25
47716;BME280;33476;50.984;3.538;2023-11-19T09:41:07;101151.25;;;16.60;68.96
47716;BME280;33476;50.984;3.538;2023-11-19T09:43:34;101146.28;;;16.42;69.59
47716;BME280;33476;50.984;3.538;2023-11-19T09:46:05;101138.66;;;16.25;69.74
47716;BME280;33476;50.984;3.538;2023-11-19T09:48:35;101151.59;;;16.15;70.33
47716;BME280;33476;50.984;3.538;2023-11-19T09:51:02;101144.50;;;16.03;70.73
47716;BME280;33476;50.984;3.538;2023-11-19T09:53:28;101137.84;;;15.97;71.08
47716;BME280;33476;50.984;3.538;2023-11-19T09:55:53;101147.28;;;15.87;71.01
47716;BME280;33476;50.984;3.538;2023-11-19T09:58:20;101156.09;;;15.73;71.34
47716;BME280;33476;50.984;3.538;2023-11-19T10:00:45;101156.75;;;15.63;71.87
47716;BME280;33476;50.984;3.538;2023-11-19T10:03:12;101157.31;;;15.54;72.29
47716;BME280;33476;50.984;3.538;2023-11-19T10:05:38;101164.19;;;15.42;72.85
47716;BME280;33476;50.984;3.538;2023-11-19T10:08:04;101164.88;;;15.31;73.32
47716;BME280;33476;50.984;3.538;2023-11-19T10:10:30;101162.41;;;15.28;73.26
47716;BME280;33476;50.984;3.538;2023-11-19T10:12:55;101169.19;;;15.18;73.58
47716;BME280;33476;50.984;3.538;2023-11-19T10:15:22;101164.88;;;15.17;73.98
47716;BME280;33476;50.984;3.538;2023-11-19T10:17:50;101153.59;;;15.15;73.84
47716;BME280;33476;50.984;3.538;2023-11-19T10:20:15;101159.34;;;15.07;73.85
47716;BME280;33476;50.984;3.538;2023-11-19T10:22:40;101148.13;;;15.04;73.57
47716;BME280;33476;50.984;3.538;2023-11-19T10:25:22;101136.97;;;15.00;73.92
47716;BME280;33476;50.984;3.538;2023-11-19T10:27:48;101145.13;;;15.10;73.32
47716;BME280;33476;50.984;3.538;2023-11-19T10:30:24;101141.66;;;15.09;73.23
47716;BME280;33476;50.984;3.538;2023-11-19T10:35:59;101145.41;;;15.20;73.10
47716;BME280;33476;50.984;3.538;2023-11-19T10:38:27;101135.56;;;15.23;72.66
47716;BME280;33476;50.984;3.538;2023-11-19T10:40:53;101146.25;;;15.20;72.77
47716;BME280;33476;50.984;3.538;2023-11-19T10:43:22;101139.66;;;15.41;72.61
47716;BME280;33476;50.984;3.538;2023-11-19T10:45:48;101139.47;;;15.86;71.61
47716;BME280;33476;50.984;3.538;2023-11-19T10:48:13;101126.53;;;16.22;70.57
47716;BME280;33476;50.984;3.538;2023-11-19T10:50:41;101119.72;;;16.58;69.62
47716;BME280;33476;50.984;3.538;2023-11-19T10:53:09;101115.31;;;16.97;68.83
47716;BME280;33476;50.984;3.538;2023-11-19T10:55:38;101107.19;;;17.36;67.87
47716;BME280;33476;50.984;3.538;2023-11-19T10:58:08;101094.53;;;17.65;66.88
47716;BME280;33476;50.984;3.538;2023-11-19T11:03:09;101082.63;;;18.08;64.78
47716;BME280;33476;50.984;3.538;2023-11-19T11:05:36;101086.66;;;18.36;64.03
47716;BME280;33476;50.984;3.538;2023-11-19T11:08:06;101084.59;;;18.28;64.17
47716;BME280;33476;50.984;3.538;2023-11-19T11:10:32;101075.19;;;18.13;64.13
47716;BME280;33476;50.984;3.538;2023-11-19T11:13:02;101072.31;;;17.81;64.58
47716;BME280;33476;50.984;3.538;2023-11-19T11:15:30;101085.69;;;17.54;65.29
47716;BME280;33476;50.984;3.538;2023-11-19T11:17:59;101082.09;;;17.31;66.08
47716;BME280;33476;50.984;3.538;2023-11-19T11:20:32;101077.19;;;17.13;66.39
47716;BME280;33476;50.984;3.538;2023-11-19T11:29:02;101070.88;;;16.65;67.69
47716;BME280;33476;50.984;3.538;2023-11-19T11:34:58;101070.34;;;16.35;68.65
47716;BME280;33476;50.984;3.538;2023-11-19T11:39:58;101078.72;;;16.01;70.03
47716;BME280;33476;50.984;3.538;2023-11-19T11:45:07;101092.28;;;15.83;71.38
47716;BME280;33476;50.984;3.538;2023-11-19T11:50:09;101093.22;;;15.82;71.57
47716;BME280;33476;50.984;3.538;2023-11-19T11:55:33;101087.91;;;15.69;71.96
47716;BME280;33476;50.984;3.538;2023-11-19T11:57:59;101085.47;;;15.66;71.82
47716;BME280;33476;50.984;3.538;2023-11-19T12:00:30;101092.13;;;15.71;71.89
47716;BME280;33476;50.984;3.538;2023-11-19T12:02:59;101087.78;;;15.97;71.51
47716;BME280;33476;50.984;3.538;2023-11-19T12:05:24;101089.19;;;16.16;71.21
47716;BME280;33476;50.984;3.538;2023-11-19T12:08:00;101078.16;;;16.23;71.13
47716;BME280;33476;50.984;3.538;2023-11-19T12:10:30;101081.28;;;16.28;70.64
47716;BME280;33476;50.984;3.538;2023-11-19T12:13:01;101070.25;;;16.23;70.74
47716;BME280;33476;50.984;3.538;2023-11-19T12:15:27;101067.94;;;16.32;70.57
47716;BME280;33476;50.984;3.538;2023-11-19T12:17:54;101060.22;;;16.28;70.82
47716;BME280;33476;50.984;3.538;2023-11-19T12:20:33;101072.88;;;16.23;70.93
47716;BME280;33476;50.984;3.538;2023-11-19T12:23:04;101067.72;;;16.22;70.85
47716;BME280;33476;50.984;3.538;2023-11-19T12:25:34;101065.28;;;16.19;70.98
47716;BME280;33476;50.984;3.538;2023-11-19T12:28:00;101066.63;;;16.12;70.79
47716;BME280;33476;50.984;3.538;2023-11-19T12:30:29;101085.41;;;16.07;71.12
47716;BME280;33476;50.984;3.538;2023-11-19T12:32:55;101084.22;;;15.98;71.54
47716;BME280;33476;50.984;3.538;2023-11-19T12:35:21;101066.47;;;15.88;71.79
47716;BME280;33476;50.984;3.538;2023-11-19T12:37:48;101096.59;;;15.84;71.91
47716;BME280;33476;50.984;3.538;2023-11-19T12:40:14;101082.97;;;15.77;72.06
47716;BME280;33476;50.984;3.538;2023-11-19T12:42:41;101079.06;;;15.70;72.21
47716;BME280;33476;50.984;3.538;2023-11-19T12:45:06;101076.84;;;15.64;71.97
47716;BME280;33476;50.984;3.538;2023-11-19T12:47:33;101086.78;;;15.59;72.09
47716;BME280;33476;50.984;3.538;2023-11-19T12:49:58;101085.09;;;15.58;72.17
47716;BME280;33476;50.984;3.538;2023-11-19T12:52:24;101071.69;;;15.48;71.97
47716;BME280;33476;50.984;3.538;2023-11-19T12:54:50;101071.22;;;15.41;72.21
47716;BME280;33476;50.984;3.538;2023-11-19T12:57:16;101069.69;;;15.52;72.25
47716;BME280;33476;50.984;3.538;2023-11-19T12:59:54;101058.59;;;15.46;72.40
47716;BME280;33476;50.984;3.538;2023-11-19T13:02:19;101059.63;;;15.58;72.07
47716;BME280;33476;50.984;3.538;2023-11-19T13:04:45;101045.31;;;15.62;71.83
47716;BME280;33476;50.984;3.538;2023-11-19T13:07:11;101052.38;;;15.62;71.90
47716;BME280;33476;50.984;3.538;2023-11-19T13:09:36;101062.13;;;15.60;71.76
47716;BME280;33476;50.984;3.538;2023-11-19T13:12:12;101047.06;;;15.49;71.96